sensor_id;sensor_type;location;lat;lon;timestamp;temperature;humidity
22192;DHT22;11261;52.456;10.850;2022-07-22T00:01:04;20.60;99.90
22192;DHT22;11261;52.456;10.850;2022-07-22T00:03:34;20.60;99.90
22192;DHT22;11261;52.456;10.850;2022-07-22T00:06:02;20.50;99.90
22192;DHT22;11261;52.456;10.850;2022-07-22T00:08:30;20.80;99.90
22192;DHT22;11261;52.456;10.850;2022-07-22T00:10:59;20.80;99.90
22192;DHT22;11261;52.456;10.850;2022-07-22T00:13:27;20.60;99.90
22192;DHT22;11261;52.456;10.850;2022-07-22T00:15:55;20.50;99.90
22192;DHT22;11261;52.456;10.850;2022-07-22T00:18:23;20.30;99.90
22192;DHT22;11261;52.456;10.850;2022-07-22T00:20:53;20.00;99.90
22192;DHT22;11261;52.456;10.850;2022-07-22T00:23:21;20.00;99.90
22192;DHT22;11261;52.456;10.850;2022-07-22T00:25:49;20.10;99.90
22192;DHT22;11261;52.456;10.850;2022-07-22T00:28:17;20.20;99.90
22192;DHT22;11261;52.456;10.850;2022-07-22T00:30:45;20.30;99.90
22192;DHT22;11261;52.456;10.850;2022-07-22T00:33:17;20.60;99.90
22192;DHT22;11261;52.456;10.850;2022-07-22T00:35:45;20.50;99.90
22192;DHT22;11261;52.456;10.850;2022-07-22T00:38:15;20.40;99.90
22192;DHT22;11261;52.456;10.850;2022-07-22T00:40:43;20.40;99.90
22192;DHT22;11261;52.456;10.850;2022-07-22T00:43:11;20.50;99.90
22192;DHT22;11261;52.456;10.850;2022-07-22T00:45:39;20.30;99.90
22192;DHT22;11261;52.456;10.850;2022-07-22T00:48:07;20.50;99.90
22192;DHT22;11261;52.456;10.850;2022-07-22T00:50:36;20.50;99.90
22192;DHT22;11261;52.456;10.850;2022-07-22T00:53:04;20.40;99.90
22192;DHT22;11261;52.456;10.850;2022-07-22T00:55:35;20.50;99.90
22192;DHT22;11261;52.456;10.850;2022-07-22T00:58:04;20.50;99.90
22192;DHT22;11261;52.456;10.850;2022-07-22T01:00:32;20.60;99.90
22192;DHT22;11261;52.456;10.850;2022-07-22T01:03:00;20.40;99.90
22192;DHT22;11261;52.456;10.850;2022-07-22T01:05:29;20.40;99.90
22192;DHT22;11261;52.456;10.850;2022-07-22T01:07:57;20.40;99.90
22192;DHT22;11261;52.456;10.850;2022-07-22T01:10:25;20.40;99.90
22192;DHT22;11261;52.456;10.850;2022-07-22T01:12:55;20.10;99.90
22192;DHT22;11261;52.456;10.850;2022-07-22T01:15:23;19.70;99.90
22192;DHT22;11261;52.456;10.850;2022-07-22T01:17:51;20.10;99.90
22192;DHT22;11261;52.456;10.850;2022-07-22T01:20:21;20.50;99.90
22192;DHT22;11261;52.456;10.850;2022-07-22T01:22:50;20.40;99.90
22192;DHT22;11261;52.456;10.850;2022-07-22T01:25:18;20.30;99.90
22192;DHT22;11261;52.456;10.850;2022-07-22T01:27:46;20.00;99.90
22192;DHT22;11261;52.456;10.850;2022-07-22T01:30:14;20.30;99.90
22192;DHT22;11261;52.456;10.850;2022-07-22T01:32:42;20.40;99.90
22192;DHT22;11261;52.456;10.850;2022-07-22T01:35:11;20.20;99.90
22192;DHT22;11261;52.456;10.850;2022-07-22T01:37:40;20.20;99.90
22192;DHT22;11261;52.456;10.850;2022-07-22T01:40:10;20.40;99.90
22192;DHT22;11261;52.456;10.850;2022-07-22T01:42:38;20.30;99.90
22192;DHT22;11261;52.456;10.850;2022-07-22T01:45:07;20.20;99.90
22192;DHT22;11261;52.456;10.850;2022-07-22T01:47:35;20.20;99.90
22192;DHT22;11261;52.456;10.850;2022-07-22T01:50:05;20.10;99.90
22192;DHT22;11261;52.456;10.850;2022-07-22T01:52:33;20.20;99.90
22192;DHT22;11261;52.456;10.850;2022-07-22T01:55:04;20.00;99.90
22192;DHT22;11261;52.456;10.850;2022-07-22T01:57:32;19.90;99.90
22192;DHT22;11261;52.456;10.850;2022-07-22T02:00:00;19.90;99.90
22192;DHT22;11261;52.456;10.850;2022-07-22T02:02:28;19.60;99.90
22192;DHT22;11261;52.456;10.850;2022-07-22T02:04:57;19.80;99.90
22192;DHT22;11261;52.456;10.850;2022-07-22T02:07:25;20.00;99.90
22192;DHT22;11261;52.456;10.850;2022-07-22T02:09:54;20.10;99.90
22192;DHT22;11261;52.456;10.850;2022-07-22T02:12:24;20.30;99.90
22192;DHT22;11261;52.456;10.850;2022-07-22T02:14:52;20.10;99.90
22192;DHT22;11261;52.456;10.850;2022-07-22T02:17:20;20.10;99.90
22192;DHT22;11261;52.456;10.850;2022-07-22T02:19:48;20.20;99.90
22192;DHT22;11261;52.456;10.850;2022-07-22T02:22:17;20.40;99.90
22192;DHT22;11261;52.456;10.850;2022-07-22T02:24:45;20.20;99.90
22192;DHT22;11261;52.456;10.850;2022-07-22T02:27:13;19.90;99.90
22192;DHT22;11261;52.456;10.850;2022-07-22T02:29:43;19.80;99.90
22192;DHT22;11261;52.456;10.850;2022-07-22T02:32:12;20.10;99.90
22192;DHT22;11261;52.456;10.850;2022-07-22T02:34:40;20.10;99.90
22192;DHT22;11261;52.456;10.850;2022-07-22T02:37:10;20.10;99.90
22192;DHT22;11261;52.456;10.850;2022-07-22T02:39:38;20.00;99.90
22192;DHT22;11261;52.456;10.850;2022-07-22T02:42:06;20.10;99.90
22192;DHT22;11261;52.456;10.850;2022-07-22T02:44:35;20.10;99.90
22192;DHT22;11261;52.456;10.850;2022-07-22T02:47:04;20.20;99.90
22192;DHT22;11261;52.456;10.850;2022-07-22T02:49:33;20.20;99.90
22192;DHT22;11261;52.456;10.850;2022-07-22T02:52:01;20.10;99.90
22192;DHT22;11261;52.456;10.850;2022-07-22T02:54:29;20.10;99.90
22192;DHT22;11261;52.456;10.850;2022-07-22T02:56:57;20.20;99.90
22192;DHT22;11261;52.456;10.850;2022-07-22T02:59:26;20.10;99.90
22192;DHT22;11261;52.456;10.850;2022-07-22T03:01:54;20.10;99.90
22192;DHT22;11261;52.456;10.850;2022-07-22T03:04:23;20.10;99.90
22192;DHT22;11261;52.456;10.850;2022-07-22T03:06:52;19.80;99.90
22192;DHT22;11261;52.456;10.850;2022-07-22T03:09:20;20.10;99.90
22192;DHT22;11261;52.456;10.850;2022-07-22T03:11:48;20.20;99.90
22192;DHT22;11261;52.456;10.850;2022-07-22T03:14:17;20.10;99.90
22192;DHT22;11261;52.456;10.850;2022-07-22T03:16:45;20.20;99.90
22192;DHT22;11261;52.456;10.850;2022-07-22T03:19:13;20.10;99.90
22192;DHT22;11261;52.456;10.850;2022-07-22T03:21:43;20.00;99.90
22192;DHT22;11261;52.456;10.850;2022-07-22T03:24:11;20.10;99.90
22192;DHT22;11261;52.456;10.850;2022-07-22T03:26:40;20.10;99.90
22192;DHT22;11261;52.456;10.850;2022-07-22T03:29:08;20.10;99.90
22192;DHT22;11261;52.456;10.850;2022-07-22T03:31:36;20.00;99.90
22192;DHT22;11261;52.456;10.850;2022-07-22T03:34:04;20.00;99.90
22192;DHT22;11261;52.456;10.850;2022-07-22T03:36:32;20.10;99.90
22192;DHT22;11261;52.456;10.850;2022-07-22T03:39:02;20.20;99.90
22192;DHT22;11261;52.456;10.850;2022-07-22T03:41:30;20.10;99.90
22192;DHT22;11261;52.456;10.850;2022-07-22T03:43:58;20.00;99.90
22192;DHT22;11261;52.456;10.850;2022-07-22T03:46:26;20.10;99.90
22192;DHT22;11261;52.456;10.850;2022-07-22T03:48:54;19.90;99.90
22192;DHT22;11261;52.456;10.850;2022-07-22T03:51:22;20.00;99.90
22192;DHT22;11261;52.456;10.850;2022-07-22T03:53:56;20.20;99.90
22192;DHT22;11261;52.456;10.850;2022-07-22T03:56:26;20.10;99.90
22192;DHT22;11261;52.456;10.850;2022-07-22T03:58:54;20.00;99.90
22192;DHT22;11261;52.456;10.850;2022-07-22T04:01:22;20.20;99.90
22192;DHT22;11261;52.456;10.850;2022-07-22T04:03:51;20.10;99.90
22192;DHT22;11261;52.456;10.850;2022-07-22T04:06:19;20.00;99.90
22192;DHT22;11261;52.456;10.850;2022-07-22T04:08:47;20.00;99.90
22192;DHT22;11261;52.456;10.850;2022-07-22T04:11:15;19.80;99.90
22192;DHT22;11261;52.456;10.850;2022-07-22T04:13:45;19.70;99.90
22192;DHT22;11261;52.456;10.850;2022-07-22T04:16:13;19.80;99.90
22192;DHT22;11261;52.456;10.850;2022-07-22T04:18:41;19.90;99.90
22192;DHT22;11261;52.456;10.850;2022-07-22T04:21:10;19.90;99.90
22192;DHT22;11261;52.456;10.850;2022-07-22T04:23:39;19.90;99.90
22192;DHT22;11261;52.456;10.850;2022-07-22T04:26:08;19.80;99.90
22192;DHT22;11261;52.456;10.850;2022-07-22T04:28:36;20.00;99.90
22192;DHT22;11261;52.456;10.850;2022-07-22T04:31:06;20.10;99.90
22192;DHT22;11261;52.456;10.850;2022-07-22T04:33:34;20.10;99.90
22192;DHT22;11261;52.456;10.850;2022-07-22T04:36:02;20.10;99.90
22192;DHT22;11261;52.456;10.850;2022-07-22T04:38:31;19.90;99.90
22192;DHT22;11261;52.456;10.850;2022-07-22T04:40:59;19.60;99.90
22192;DHT22;11261;52.456;10.850;2022-07-22T04:43:27;19.80;99.90
22192;DHT22;11261;52.456;10.850;2022-07-22T04:45:56;20.40;99.90
22192;DHT22;11261;52.456;10.850;2022-07-22T04:48:25;21.20;99.90
22192;DHT22;11261;52.456;10.850;2022-07-22T04:50:53;21.50;99.90
22192;DHT22;11261;52.456;10.850;2022-07-22T04:53:25;21.20;99.90
22192;DHT22;11261;52.456;10.850;2022-07-22T04:56:13;21.20;99.90
22192;DHT22;11261;52.456;10.850;2022-07-22T04:58:41;20.40;99.90
22192;DHT22;11261;52.456;10.850;2022-07-22T05:01:09;19.90;99.90
22192;DHT22;11261;52.456;10.850;2022-07-22T05:03:39;20.60;99.90
22192;DHT22;11261;52.456;10.850;2022-07-22T05:06:07;20.30;99.90
22192;DHT22;11261;52.456;10.850;2022-07-22T05:08:36;20.40;99.90
22192;DHT22;11261;52.456;10.850;2022-07-22T05:11:04;19.90;99.90
22192;DHT22;11261;52.456;10.850;2022-07-22T05:13:32;19.90;99.90
22192;DHT22;11261;52.456;10.850;2022-07-22T05:16:02;20.10;99.90
22192;DHT22;11261;52.456;10.850;2022-07-22T05:18:30;20.50;99.90
22192;DHT22;11261;52.456;10.850;2022-07-22T05:21:01;20.40;99.90
22192;DHT22;11261;52.456;10.850;2022-07-22T05:23:29;20.30;99.90
22192;DHT22;11261;52.456;10.850;2022-07-22T05:25:57;20.30;99.90
22192;DHT22;11261;52.456;10.850;2022-07-22T05:28:25;20.40;99.90
22192;DHT22;11261;52.456;10.850;2022-07-22T05:30:54;20.80;99.90
22192;DHT22;11261;52.456;10.850;2022-07-22T05:33:22;20.70;99.90
22192;DHT22;11261;52.456;10.850;2022-07-22T05:35:50;20.20;99.90
22192;DHT22;11261;52.456;10.850;2022-07-22T05:38:20;20.10;99.90
22192;DHT22;11261;52.456;10.850;2022-07-22T05:40:48;20.40;99.90
22192;DHT22;11261;52.456;10.850;2022-07-22T05:43:17;20.10;99.90
22192;DHT22;11261;52.456;10.850;2022-07-22T05:45:45;20.30;99.90
22192;DHT22;11261;52.456;10.850;2022-07-22T05:48:13;20.40;99.90
22192;DHT22;11261;52.456;10.850;2022-07-22T05:50:41;20.40;99.90
22192;DHT22;11261;52.456;10.850;2022-07-22T05:53:09;20.00;99.90
22192;DHT22;11261;52.456;10.850;2022-07-22T05:55:39;20.10;99.90
22192;DHT22;11261;52.456;10.850;2022-07-22T05:58:07;20.10;99.90
22192;DHT22;11261;52.456;10.850;2022-07-22T06:00:35;20.30;99.90
22192;DHT22;11261;52.456;10.850;2022-07-22T06:03:03;19.90;99.90
22192;DHT22;11261;52.456;10.850;2022-07-22T06:05:33;19.80;99.90
22192;DHT22;11261;52.456;10.850;2022-07-22T06:08:04;19.60;99.90
22192;DHT22;11261;52.456;10.850;2022-07-22T06:10:32;19.20;99.90
22192;DHT22;11261;52.456;10.850;2022-07-22T06:13:02;19.50;99.90
22192;DHT22;11261;52.456;10.850;2022-07-22T06:15:30;19.60;99.90
22192;DHT22;11261;52.456;10.850;2022-07-22T06:17:58;19.70;99.90
22192;DHT22;11261;52.456;10.850;2022-07-22T06:20:26;19.40;99.90
22192;DHT22;11261;52.456;10.850;2022-07-22T06:22:55;19.70;99.90
22192;DHT22;11261;52.456;10.850;2022-07-22T06:25:23;19.80;99.90
22192;DHT22;11261;52.456;10.850;2022-07-22T06:28:11;20.10;99.90
22192;DHT22;11261;52.456;10.850;2022-07-22T06:30:41;19.70;99.90
22192;DHT22;11261;52.456;10.850;2022-07-22T06:33:09;19.50;99.90
22192;DHT22;11261;52.456;10.850;2022-07-22T06:35:38;19.70;99.90
22192;DHT22;11261;52.456;10.850;2022-07-22T06:38:08;20.00;99.90
22192;DHT22;11261;52.456;10.850;2022-07-22T06:40:49;19.60;99.90
22192;DHT22;11261;52.456;10.850;2022-07-22T06:43:19;19.70;99.90
22192;DHT22;11261;52.456;10.850;2022-07-22T06:45:47;19.70;99.90
22192;DHT22;11261;52.456;10.850;2022-07-22T06:48:15;19.70;99.90
22192;DHT22;11261;52.456;10.850;2022-07-22T06:50:43;19.80;99.90
22192;DHT22;11261;52.456;10.850;2022-07-22T06:53:18;19.30;99.90
22192;DHT22;11261;52.456;10.850;2022-07-22T06:55:47;19.60;99.90
22192;DHT22;11261;52.456;10.850;2022-07-22T06:58:15;19.40;99.90
22192;DHT22;11261;52.456;10.850;2022-07-22T07:00:45;19.60;99.90
22192;DHT22;11261;52.456;10.850;2022-07-22T07:03:13;19.90;99.90
22192;DHT22;11261;52.456;10.850;2022-07-22T07:06:01;19.70;99.90
22192;DHT22;11261;52.456;10.850;2022-07-22T07:08:30;20.00;99.90
22192;DHT22;11261;52.456;10.850;2022-07-22T07:10:58;20.10;99.90
22192;DHT22;11261;52.456;10.850;2022-07-22T07:13:28;19.80;99.90
22192;DHT22;11261;52.456;10.850;2022-07-22T07:15:57;19.60;99.90
22192;DHT22;11261;52.456;10.850;2022-07-22T07:18:25;19.50;99.90
22192;DHT22;11261;52.456;10.850;2022-07-22T07:20:54;19.60;99.90
22192;DHT22;11261;52.456;10.850;2022-07-22T07:23:23;20.00;99.90
22192;DHT22;11261;52.456;10.850;2022-07-22T07:25:51;19.90;99.90
22192;DHT22;11261;52.456;10.850;2022-07-22T07:28:19;20.10;99.90
22192;DHT22;11261;52.456;10.850;2022-07-22T07:30:48;20.10;99.90
22192;DHT22;11261;52.456;10.850;2022-07-22T07:33:18;20.10;99.90
22192;DHT22;11261;52.456;10.850;2022-07-22T07:35:47;20.10;99.90
22192;DHT22;11261;52.456;10.850;2022-07-22T07:38:15;19.90;99.90
22192;DHT22;11261;52.456;10.850;2022-07-22T07:40:43;20.20;99.90
22192;DHT22;11261;52.456;10.850;2022-07-22T07:43:11;20.40;99.90
22192;DHT22;11261;52.456;10.850;2022-07-22T07:45:40;20.30;99.90
22192;DHT22;11261;52.456;10.850;2022-07-22T07:48:08;20.40;99.90
22192;DHT22;11261;52.456;10.850;2022-07-22T07:50:38;20.60;99.90
22192;DHT22;11261;52.456;10.850;2022-07-22T07:53:06;20.70;99.90
22192;DHT22;11261;52.456;10.850;2022-07-22T07:55:34;20.70;99.90
22192;DHT22;11261;52.456;10.850;2022-07-22T07:58:05;20.60;99.90
22192;DHT22;11261;52.456;10.850;2022-07-22T08:00:33;20.20;99.90
22192;DHT22;11261;52.456;10.850;2022-07-22T08:03:02;20.30;99.90
22192;DHT22;11261;52.456;10.850;2022-07-22T08:05:33;20.30;99.90
22192;DHT22;11261;52.456;10.850;2022-07-22T08:08:03;20.20;99.90
22192;DHT22;11261;52.456;10.850;2022-07-22T08:10:41;20.20;99.90
22192;DHT22;11261;52.456;10.850;2022-07-22T08:13:27;19.80;99.90
22192;DHT22;11261;52.456;10.850;2022-07-22T08:15:55;19.90;99.90
22192;DHT22;11261;52.456;10.850;2022-07-22T08:18:24;19.80;99.90
22192;DHT22;11261;52.456;10.850;2022-07-22T08:20:53;19.90;99.90
22192;DHT22;11261;52.456;10.850;2022-07-22T08:23:23;20.00;99.90
22192;DHT22;11261;52.456;10.850;2022-07-22T08:25:52;20.00;99.90
22192;DHT22;11261;52.456;10.850;2022-07-22T08:28:20;20.00;99.90
22192;DHT22;11261;52.456;10.850;2022-07-22T08:30:48;20.10;99.90
22192;DHT22;11261;52.456;10.850;2022-07-22T08:33:16;20.10;99.90
22192;DHT22;11261;52.456;10.850;2022-07-22T08:35:45;20.10;99.90
22192;DHT22;11261;52.456;10.850;2022-07-22T08:38:13;20.20;99.90
22192;DHT22;11261;52.456;10.850;2022-07-22T08:40:42;20.30;99.90
22192;DHT22;11261;52.456;10.850;2022-07-22T08:43:11;20.40;99.90
22192;DHT22;11261;52.456;10.850;2022-07-22T08:45:39;20.40;99.90
22192;DHT22;11261;52.456;10.850;2022-07-22T08:48:08;20.30;99.90
22192;DHT22;11261;52.456;10.850;2022-07-22T08:50:37;20.50;99.90
22192;DHT22;11261;52.456;10.850;2022-07-22T08:53:08;20.60;99.90
22192;DHT22;11261;52.456;10.850;2022-07-22T08:55:42;20.40;99.90
22192;DHT22;11261;52.456;10.850;2022-07-22T08:58:12;20.40;99.90
22192;DHT22;11261;52.456;10.850;2022-07-22T09:00:40;20.40;99.90
22192;DHT22;11261;52.456;10.850;2022-07-22T09:03:19;20.50;99.90
22192;DHT22;11261;52.456;10.850;2022-07-22T09:05:50;20.80;99.90
22192;DHT22;11261;52.456;10.850;2022-07-22T09:08:19;20.70;99.90
22192;DHT22;11261;52.456;10.850;2022-07-22T09:10:48;20.60;99.90
22192;DHT22;11261;52.456;10.850;2022-07-22T09:13:17;20.60;99.90
22192;DHT22;11261;52.456;10.850;2022-07-22T09:15:47;20.80;99.90
22192;DHT22;11261;52.456;10.850;2022-07-22T09:18:17;21.10;99.90
22192;DHT22;11261;52.456;10.850;2022-07-22T09:20:45;21.50;99.90
22192;DHT22;11261;52.456;10.850;2022-07-22T09:23:15;21.50;99.90
22192;DHT22;11261;52.456;10.850;2022-07-22T09:25:44;21.50;99.90
22192;DHT22;11261;52.456;10.850;2022-07-22T09:28:20;21.40;99.90
22192;DHT22;11261;52.456;10.850;2022-07-22T09:30:52;21.30;99.90
22192;DHT22;11261;52.456;10.850;2022-07-22T09:33:23;21.30;99.90
22192;DHT22;11261;52.456;10.850;2022-07-22T09:35:52;21.20;99.90
22192;DHT22;11261;52.456;10.850;2022-07-22T09:38:28;21.00;99.90
22192;DHT22;11261;52.456;10.850;2022-07-22T09:40:58;21.00;99.90
22192;DHT22;11261;52.456;10.850;2022-07-22T09:43:28;21.00;99.90
22192;DHT22;11261;52.456;10.850;2022-07-22T09:46:01;21.00;99.90
22192;DHT22;11261;52.456;10.850;2022-07-22T09:48:31;21.20;99.90
22192;DHT22;11261;52.456;10.850;2022-07-22T09:50:59;21.10;99.90
22192;DHT22;11261;52.456;10.850;2022-07-22T09:53:29;21.20;99.90
22192;DHT22;11261;52.456;10.850;2022-07-22T09:55:58;21.10;99.90
22192;DHT22;11261;52.456;10.850;2022-07-22T09:58:28;21.10;99.90
22192;DHT22;11261;52.456;10.850;2022-07-22T10:00:59;21.00;99.90
22192;DHT22;11261;52.456;10.850;2022-07-22T10:03:29;21.00;99.90
22192;DHT22;11261;52.456;10.850;2022-07-22T10:05:58;21.30;99.90
22192;DHT22;11261;52.456;10.850;2022-07-22T10:08:28;21.50;99.90
22192;DHT22;11261;52.456;10.850;2022-07-22T10:10:59;21.30;99.90
22192;DHT22;11261;52.456;10.850;2022-07-22T10:13:29;21.40;99.90
22192;DHT22;11261;52.456;10.850;2022-07-22T10:15:58;21.30;99.90
22192;DHT22;11261;52.456;10.850;2022-07-22T10:18:27;21.30;99.90
22192;DHT22;11261;52.456;10.850;2022-07-22T10:21:05;21.30;99.90
22192;DHT22;11261;52.456;10.850;2022-07-22T10:23:33;21.10;99.90
22192;DHT22;11261;52.456;10.850;2022-07-22T10:26:03;21.30;99.90
22192;DHT22;11261;52.456;10.850;2022-07-22T10:28:35;21.70;99.90
22192;DHT22;11261;52.456;10.850;2022-07-22T10:31:20;22.40;99.90
22192;DHT22;11261;52.456;10.850;2022-07-22T10:33:51;22.40;99.90
22192;DHT22;11261;52.456;10.850;2022-07-22T10:36:31;22.30;99.90
22192;DHT22;11261;52.456;10.850;2022-07-22T10:39:05;22.40;99.90
22192;DHT22;11261;52.456;10.850;2022-07-22T10:41:36;22.40;99.90
22192;DHT22;11261;52.456;10.850;2022-07-22T10:44:06;22.30;99.90
22192;DHT22;11261;52.456;10.850;2022-07-22T10:46:51;22.10;99.90
22192;DHT22;11261;52.456;10.850;2022-07-22T10:49:21;22.00;99.90
22192;DHT22;11261;52.456;10.850;2022-07-22T10:52:10;21.90;99.90
22192;DHT22;11261;52.456;10.850;2022-07-22T10:55:18;22.00;99.90
22192;DHT22;11261;52.456;10.850;2022-07-22T10:57:47;22.00;99.90
22192;DHT22;11261;52.456;10.850;2022-07-22T11:00:17;21.90;99.90
22192;DHT22;11261;52.456;10.850;2022-07-22T11:02:45;21.90;99.90
22192;DHT22;11261;52.456;10.850;2022-07-22T11:05:14;22.00;99.90
22192;DHT22;11261;52.456;10.850;2022-07-22T11:07:51;22.00;99.90
22192;DHT22;11261;52.456;10.850;2022-07-22T11:10:20;22.50;99.90
22192;DHT22;11261;52.456;10.850;2022-07-22T11:12:49;22.60;99.90
22192;DHT22;11261;52.456;10.850;2022-07-22T11:15:25;22.80;99.90
22192;DHT22;11261;52.456;10.850;2022-07-22T11:17:56;22.90;99.90
22192;DHT22;11261;52.456;10.850;2022-07-22T11:20:25;22.90;99.90
22192;DHT22;11261;52.456;10.850;2022-07-22T11:22:53;23.20;99.90
22192;DHT22;11261;52.456;10.850;2022-07-22T11:25:25;23.00;99.90
22192;DHT22;11261;52.456;10.850;2022-07-22T11:27:54;22.80;99.90
22192;DHT22;11261;52.456;10.850;2022-07-22T11:30:26;22.70;99.90
22192;DHT22;11261;52.456;10.850;2022-07-22T11:32:54;22.60;99.90
22192;DHT22;11261;52.456;10.850;2022-07-22T11:35:23;22.50;99.90
22192;DHT22;11261;52.456;10.850;2022-07-22T11:37:57;22.70;99.90
22192;DHT22;11261;52.456;10.850;2022-07-22T11:40:32;22.60;99.90
22192;DHT22;11261;52.456;10.850;2022-07-22T11:43:01;22.80;99.90
22192;DHT22;11261;52.456;10.850;2022-07-22T11:45:30;23.10;99.90
22192;DHT22;11261;52.456;10.850;2022-07-22T11:47:58;22.90;99.90
22192;DHT22;11261;52.456;10.850;2022-07-22T11:50:35;23.00;99.90
22192;DHT22;11261;52.456;10.850;2022-07-22T11:53:04;22.80;99.90
22192;DHT22;11261;52.456;10.850;2022-07-22T11:55:34;23.00;99.90
22192;DHT22;11261;52.456;10.850;2022-07-22T11:58:02;22.80;99.90
22192;DHT22;11261;52.456;10.850;2022-07-22T12:00:31;22.80;99.90
22192;DHT22;11261;52.456;10.850;2022-07-22T12:03:00;22.70;99.90
22192;DHT22;11261;52.456;10.850;2022-07-22T12:05:28;22.90;99.90
22192;DHT22;11261;52.456;10.850;2022-07-22T12:07:58;22.90;99.90
22192;DHT22;11261;52.456;10.850;2022-07-22T12:10:26;22.80;99.90
22192;DHT22;11261;52.456;10.850;2022-07-22T12:12:55;22.50;99.90
22192;DHT22;11261;52.456;10.850;2022-07-22T12:15:23;22.60;99.90
22192;DHT22;11261;52.456;10.850;2022-07-22T12:18:17;22.60;99.90
22192;DHT22;11261;52.456;10.850;2022-07-22T12:20:47;22.50;99.90
22192;DHT22;11261;52.456;10.850;2022-07-22T12:23:20;22.50;99.90
22192;DHT22;11261;52.456;10.850;2022-07-22T12:25:53;22.60;99.90
22192;DHT22;11261;52.456;10.850;2022-07-22T12:28:22;22.40;99.90
22192;DHT22;11261;52.456;10.850;2022-07-22T12:30:53;22.50;99.90
22192;DHT22;11261;52.456;10.850;2022-07-22T12:33:23;22.70;99.90
22192;DHT22;11261;52.456;10.850;2022-07-22T12:35:59;22.60;99.90
22192;DHT22;11261;52.456;10.850;2022-07-22T12:38:28;22.60;99.90
22192;DHT22;11261;52.456;10.850;2022-07-22T12:41:23;22.50;99.90
22192;DHT22;11261;52.456;10.850;2022-07-22T12:43:51;22.70;99.90
22192;DHT22;11261;52.456;10.850;2022-07-22T12:46:20;22.60;99.90
22192;DHT22;11261;52.456;10.850;2022-07-22T12:48:51;22.50;99.90
22192;DHT22;11261;52.456;10.850;2022-07-22T12:51:20;22.40;99.90
22192;DHT22;11261;52.456;10.850;2022-07-22T12:53:48;22.30;99.90
22192;DHT22;11261;52.456;10.850;2022-07-22T12:56:19;22.30;99.90
22192;DHT22;11261;52.456;10.850;2022-07-22T12:58:48;22.60;99.90
22192;DHT22;11261;52.456;10.850;2022-07-22T13:01:16;22.60;99.90
22192;DHT22;11261;52.456;10.850;2022-07-22T13:03:45;22.40;99.90
22192;DHT22;11261;52.456;10.850;2022-07-22T13:06:14;22.70;99.90
22192;DHT22;11261;52.456;10.850;2022-07-22T13:08:43;22.90;99.90
22192;DHT22;11261;52.456;10.850;2022-07-22T13:11:13;22.90;99.90
22192;DHT22;11261;52.456;10.850;2022-07-22T13:13:41;22.80;99.90
22192;DHT22;11261;52.456;10.850;2022-07-22T13:16:12;22.90;99.90
22192;DHT22;11261;52.456;10.850;2022-07-22T13:18:41;22.80;99.90
22192;DHT22;11261;52.456;10.850;2022-07-22T13:21:09;22.90;99.90
22192;DHT22;11261;52.456;10.850;2022-07-22T13:23:39;22.60;99.90
22192;DHT22;11261;52.456;10.850;2022-07-22T13:26:07;22.90;99.90
22192;DHT22;11261;52.456;10.850;2022-07-22T13:28:35;23.00;99.90
22192;DHT22;11261;52.456;10.850;2022-07-22T13:31:04;23.00;99.90
22192;DHT22;11261;52.456;10.850;2022-07-22T13:33:32;23.00;99.90
22192;DHT22;11261;52.456;10.850;2022-07-22T13:36:01;23.10;99.90
22192;DHT22;11261;52.456;10.850;2022-07-22T13:38:30;23.10;99.90
22192;DHT22;11261;52.456;10.850;2022-07-22T13:40:59;22.80;99.90
22192;DHT22;11261;52.456;10.850;2022-07-22T13:43:27;23.00;99.90
22192;DHT22;11261;52.456;10.850;2022-07-22T13:45:57;23.20;99.90
22192;DHT22;11261;52.456;10.850;2022-07-22T13:48:25;23.10;99.90
22192;DHT22;11261;52.456;10.850;2022-07-22T13:50:54;22.90;99.90
22192;DHT22;11261;52.456;10.850;2022-07-22T13:53:22;22.80;99.90
22192;DHT22;11261;52.456;10.850;2022-07-22T13:55:50;22.70;99.90
22192;DHT22;11261;52.456;10.850;2022-07-22T13:58:19;22.80;99.90
22192;DHT22;11261;52.456;10.850;2022-07-22T14:00:48;23.10;99.90
22192;DHT22;11261;52.456;10.850;2022-07-22T14:03:16;22.80;99.90
22192;DHT22;11261;52.456;10.850;2022-07-22T14:05:44;23.00;99.90
22192;DHT22;11261;52.456;10.850;2022-07-22T14:08:12;23.40;99.90
22192;DHT22;11261;52.456;10.850;2022-07-22T14:10:40;23.30;99.90
22192;DHT22;11261;52.456;10.850;2022-07-22T14:13:09;22.90;99.90
22192;DHT22;11261;52.456;10.850;2022-07-22T14:15:39;22.90;99.90
22192;DHT22;11261;52.456;10.850;2022-07-22T14:18:08;23.10;99.90
22192;DHT22;11261;52.456;10.850;2022-07-22T14:20:36;22.70;99.90
22192;DHT22;11261;52.456;10.850;2022-07-22T14:23:05;22.70;99.90
22192;DHT22;11261;52.456;10.850;2022-07-22T14:25:34;22.80;99.90
22192;DHT22;11261;52.456;10.850;2022-07-22T14:28:03;22.80;99.90
22192;DHT22;11261;52.456;10.850;2022-07-22T14:30:53;22.80;99.90
22192;DHT22;11261;52.456;10.850;2022-07-22T14:33:21;22.90;99.90
22192;DHT22;11261;52.456;10.850;2022-07-22T14:35:49;22.80;99.90
22192;DHT22;11261;52.456;10.850;2022-07-22T14:38:17;22.90;99.90
22192;DHT22;11261;52.456;10.850;2022-07-22T14:40:46;23.40;99.90
22192;DHT22;11261;52.456;10.850;2022-07-22T14:43:14;23.40;99.90
22192;DHT22;11261;52.456;10.850;2022-07-22T14:46:04;23.10;99.90
22192;DHT22;11261;52.456;10.850;2022-07-22T14:48:34;23.00;99.90
22192;DHT22;11261;52.456;10.850;2022-07-22T14:51:02;23.10;99.90
22192;DHT22;11261;52.456;10.850;2022-07-22T14:53:31;22.80;99.90
22192;DHT22;11261;52.456;10.850;2022-07-22T14:55:59;22.90;99.90
22192;DHT22;11261;52.456;10.850;2022-07-22T14:58:27;22.80;99.90
22192;DHT22;11261;52.456;10.850;2022-07-22T15:00:56;23.00;99.90
22192;DHT22;11261;52.456;10.850;2022-07-22T15:03:25;22.80;99.90
22192;DHT22;11261;52.456;10.850;2022-07-22T15:05:53;22.70;99.90
22192;DHT22;11261;52.456;10.850;2022-07-22T15:08:21;22.50;99.90
22192;DHT22;11261;52.456;10.850;2022-07-22T15:10:50;22.50;99.90
22192;DHT22;11261;52.456;10.850;2022-07-22T15:13:18;22.80;99.90
22192;DHT22;11261;52.456;10.850;2022-07-22T15:15:53;22.70;99.90
22192;DHT22;11261;52.456;10.850;2022-07-22T15:18:21;22.60;99.90
22192;DHT22;11261;52.456;10.850;2022-07-22T15:20:51;22.50;99.90
22192;DHT22;11261;52.456;10.850;2022-07-22T15:23:22;22.40;99.90
22192;DHT22;11261;52.456;10.850;2022-07-22T15:25:52;22.60;99.90
22192;DHT22;11261;52.456;10.850;2022-07-22T15:28:20;22.40;99.90
22192;DHT22;11261;52.456;10.850;2022-07-22T15:31:04;22.70;99.90